createdAt,value
2019-02-27T00:01:50.431Z,99.90
2019-02-27T00:04:39.680Z,99.90
2019-02-27T00:07:28.814Z,99.90
2019-02-27T00:10:17.839Z,99.90
2019-02-27T00:13:06.854Z,99.90
2019-02-27T00:15:38.045Z,99.90
2019-02-27T00:18:47.080Z,99.90
2019-02-27T00:21:17.147Z,99.90
2019-02-27T00:27:09.359Z,99.90
2019-02-27T00:30:05.865Z,99.90
2019-02-27T00:33:08.507Z,99.90
2019-02-27T00:36:12.056Z,99.90
2019-02-27T00:38:53.145Z,99.90
2019-02-27T00:41:35.359Z,99.90
2019-02-27T00:44:17.247Z,99.90
2019-02-27T00:46:58.937Z,99.90
2019-02-27T00:49:41.518Z,99.90
2019-02-27T00:52:11.405Z,99.90
2019-02-27T00:55:04.256Z,99.90
2019-02-27T00:58:10.442Z,99.90
2019-02-27T01:04:10.400Z,99.90
2019-02-27T01:07:20.697Z,99.90
2019-02-27T01:10:11.951Z,99.90
2019-02-27T01:13:19.576Z,99.90
2019-02-27T01:16:08.937Z,99.90
2019-02-27T01:18:58.110Z,99.90
2019-02-27T01:21:47.547Z,99.90
2019-02-27T01:25:14.806Z,99.90
2019-02-27T01:27:56.130Z,99.90
2019-02-27T01:30:37.905Z,99.90
2019-02-27T01:36:21.784Z,99.90
2019-02-27T01:39:24.335Z,99.90
2019-02-27T01:42:25.513Z,99.90
2019-02-27T01:45:07.927Z,99.90
2019-02-27T01:50:33.057Z,99.90
2019-02-27T01:53:15.066Z,99.90
2019-02-27T01:56:16.338Z,99.90
2019-02-27T01:58:58.047Z,99.90
2019-02-27T02:01:41.795Z,99.90
2019-02-27T02:07:07.384Z,99.90
2019-02-27T02:09:54.742Z,99.90
2019-02-27T02:12:33.071Z,99.90
2019-02-27T02:17:58.404Z,99.90
2019-02-27T02:20:40.227Z,99.90
2019-02-27T02:26:04.871Z,99.90
2019-02-27T02:28:48.323Z,99.90
2019-02-27T02:31:29.581Z,99.90
2019-02-27T02:34:40.160Z,99.90
2019-02-27T02:37:48.293Z,99.90
2019-02-27T02:40:56.497Z,99.90
2019-02-27T02:44:04.689Z,99.90
2019-02-27T02:47:06.615Z,99.90
2019-02-27T02:50:17.465Z,99.90
2019-02-27T02:53:25.197Z,99.90
2019-02-27T02:57:00.144Z,99.90
2019-02-27T03:00:22.765Z,99.90
2019-02-27T03:03:35.967Z,99.90
2019-02-27T03:06:40.827Z,99.90
2019-02-27T03:09:49.094Z,99.90
2019-02-27T03:13:16.286Z,99.90
2019-02-27T03:16:10.503Z,99.90
2019-02-27T03:19:18.618Z,99.90
2019-02-27T03:22:27.023Z,99.90
2019-02-27T03:25:40.240Z,99.90
2019-02-27T03:28:45.422Z,99.90
2019-02-27T03:32:00.185Z,99.90
2019-02-27T03:35:27.442Z,99.90
2019-02-27T03:38:51.778Z,99.90
2019-02-27T03:42:00.001Z,99.90
2019-02-27T03:45:08.194Z,99.90
2019-02-27T03:48:16.464Z,99.90
2019-02-27T03:51:25.346Z,99.90
2019-02-27T03:57:44.875Z,99.90
2019-02-27T04:00:54.067Z,99.90
2019-02-27T04:07:55.538Z,99.90
2019-02-27T04:11:05.909Z,99.90
2019-02-27T04:14:32.970Z,99.90
2019-02-27T04:17:14.379Z,99.90
2019-02-27T04:19:56.392Z,99.90
2019-02-27T04:22:38.363Z,99.90
2019-02-27T04:25:20.791Z,99.90
2019-02-27T04:28:02.484Z,99.90
2019-02-27T04:30:45.046Z,99.90
2019-02-27T04:33:27.203Z,99.90
2019-02-27T04:36:12.457Z,99.90
2019-02-27T04:38:52.499Z,99.90
2019-02-27T04:41:34.031Z,99.90
2019-02-27T04:44:35.945Z,99.90
2019-02-27T04:47:18.903Z,99.90
2019-02-27T04:50:03.793Z,99.90
2019-02-27T04:52:45.630Z,99.90
2019-02-27T04:55:28.205Z,99.90
2019-02-27T04:58:28.727Z,99.90
2019-02-27T05:01:10.725Z,99.90
2019-02-27T05:03:55.776Z,99.90
2019-02-27T05:06:37.571Z,99.90
2019-02-27T05:09:19.752Z,99.90
2019-02-27T05:12:01.578Z,99.90
2019-02-27T05:15:04.178Z,99.90
2019-02-27T05:17:46.644Z,99.90
2019-02-27T05:20:30.709Z,99.90
2019-02-27T05:23:12.928Z,99.90
2019-02-27T05:25:54.940Z,99.90
2019-02-27T05:28:36.908Z,99.90
2019-02-27T05:31:19.199Z,99.90
2019-02-27T05:34:00.767Z,99.90
2019-02-27T05:36:43.352Z,99.90
2019-02-27T05:39:24.822Z,99.90
2019-02-27T05:42:07.011Z,99.90
2019-02-27T05:44:49.233Z,99.90
2019-02-27T05:47:30.707Z,99.90
2019-02-27T05:50:11.927Z,99.90
2019-02-27T05:52:53.769Z,99.90
2019-02-27T05:55:38.989Z,99.90
2019-02-27T05:58:22.875Z,99.90
2019-02-27T06:01:04.919Z,99.90
2019-02-27T06:03:49.449Z,99.90
2019-02-27T06:06:30.343Z,99.90
2019-02-27T06:09:12.139Z,99.90
2019-02-27T06:11:53.954Z,99.90
2019-02-27T06:14:35.651Z,99.90
2019-02-27T06:17:17.427Z,99.90
2019-02-27T06:19:47.314Z,99.90
2019-02-27T06:22:36.327Z,99.90
2019-02-27T06:25:25.319Z,99.90
2019-02-27T06:28:18.429Z,99.90
2019-02-27T06:31:24.367Z,99.90
2019-02-27T06:34:13.808Z,99.90
2019-02-27T06:37:02.815Z,99.90
2019-02-27T06:39:51.974Z,99.90
2019-02-27T06:42:41.008Z,99.90
2019-02-27T06:51:52.128Z,99.90
2019-02-27T06:57:49.398Z,99.90
2019-02-27T07:03:46.354Z,99.90
2019-02-27T07:06:36.851Z,99.90
2019-02-27T07:12:58.901Z,99.90
2019-02-27T07:15:48.825Z,99.90
2019-02-27T07:18:57.984Z,99.90
2019-02-27T07:21:46.927Z,99.90
2019-02-27T07:31:42.489Z,99.90
2019-02-27T07:34:31.395Z,99.90
2019-02-27T07:37:20.327Z,99.90
2019-02-27T07:40:10.604Z,99.90
2019-02-27T07:43:00.018Z,99.90
2019-02-27T07:45:49.243Z,99.90
2019-02-27T07:48:38.230Z,99.90
2019-02-27T07:51:27.199Z,99.90
2019-02-27T07:54:16.154Z,99.90
2019-02-27T07:57:05.094Z,99.90
2019-02-27T07:59:54.109Z,99.90
2019-02-27T08:02:24.299Z,99.90
2019-02-27T08:04:54.754Z,99.90
2019-02-27T08:08:04.699Z,99.90
2019-02-27T08:13:41.247Z,99.90
2019-02-27T08:16:22.742Z,99.90
2019-02-27T08:19:04.216Z,99.90
2019-02-27T08:21:45.761Z,99.90
2019-02-27T08:24:27.984Z,99.90
2019-02-27T08:27:09.685Z,99.90
2019-02-27T08:29:52.522Z,99.90
2019-02-27T08:32:35.296Z,99.90
2019-02-27T08:35:17.186Z,99.90
2019-02-27T08:38:02.539Z,99.90
2019-02-27T08:40:42.671Z,99.90
2019-02-27T08:43:12.678Z,99.90
2019-02-27T08:49:15.321Z,99.90
2019-02-27T08:54:53.150Z,99.90
2019-02-27T08:57:42.070Z,99.90
2019-02-27T09:03:45.084Z,99.90
2019-02-27T09:06:28.708Z,99.90
2019-02-27T09:09:10.862Z,99.90
2019-02-27T09:11:52.962Z,99.90
2019-02-27T09:14:35.130Z,99.90
2019-02-27T09:17:17.111Z,99.90
2019-02-27T09:19:59.270Z,99.60
2019-02-27T09:25:24.855Z,99.80
2019-02-27T09:28:09.305Z,99.90
2019-02-27T09:30:50.886Z,99.90
2019-02-27T09:33:38.671Z,99.90
2019-02-27T09:36:16.230Z,99.90
2019-02-27T09:41:46.149Z,99.70
2019-02-27T09:44:24.796Z,99.80
2019-02-27T09:47:06.896Z,99.90
2019-02-27T09:49:49.030Z,98.10
2019-02-27T09:52:30.754Z,97.60
2019-02-27T09:55:12.591Z,96.50
2019-02-27T09:57:54.528Z,94.50
2019-02-27T10:00:36.138Z,90.70
2019-02-27T10:03:21.318Z,90.20
2019-02-27T10:06:01.596Z,86.70
2019-02-27T10:08:43.793Z,79.50
2019-02-27T10:11:25.327Z,76.10
2019-02-27T10:14:06.847Z,75.40
2019-02-27T10:16:48.858Z,75.40
2019-02-27T10:19:30.987Z,75.70
2019-02-27T10:22:13.387Z,74.50
2019-02-27T10:24:55.214Z,73.10
2019-02-27T10:27:28.820Z,72.10
2019-02-27T10:30:18.217Z,73.70
2019-02-27T10:32:49.336Z,72.20
2019-02-27T10:35:39.252Z,71.90
2019-02-27T10:38:28.683Z,70.40
2019-02-27T10:41:18.452Z,70.30
2019-02-27T10:47:16.592Z,68.60
2019-02-27T10:50:05.810Z,67.50
2019-02-27T10:52:55.342Z,68.50
2019-02-27T10:55:46.405Z,67.70
2019-02-27T10:58:54.375Z,65.30
2019-02-27T11:01:43.562Z,60.90
2019-02-27T11:04:25.073Z,59.00
2019-02-27T11:07:06.847Z,56.40
2019-02-27T11:09:48.251Z,55.30
2019-02-27T11:12:30.119Z,54.10
2019-02-27T11:15:11.687Z,55.30
2019-02-27T11:17:54.126Z,53.50
2019-02-27T11:20:35.781Z,52.30
2019-02-27T11:23:17.864Z,52.40
2019-02-27T11:25:59.655Z,50.50
2019-02-27T11:28:45.160Z,48.00
2019-02-27T11:31:25.164Z,46.80
2019-02-27T11:34:07.833Z,46.60
2019-02-27T11:36:50.698Z,52.60
2019-02-27T11:39:32.917Z,55.50
2019-02-27T11:42:15.559Z,54.10
2019-02-27T11:47:44.707Z,50.50
2019-02-27T11:50:24.632Z,48.80
2019-02-27T11:52:54.544Z,46.20
2019-02-27T11:55:24.775Z,48.10
2019-02-27T11:57:54.522Z,48.60
2019-02-27T12:00:36.962Z,48.50
2019-02-27T12:03:08.600Z,45.20
2019-02-27T12:05:57.647Z,42.50
2019-02-27T12:08:27.618Z,41.60
2019-02-27T12:10:57.407Z,42.10
2019-02-27T12:13:27.242Z,41.20
2019-02-27T12:16:18.351Z,40.60
2019-02-27T12:19:26.027Z,39.40
2019-02-27T12:22:15.043Z,38.90
2019-02-27T12:25:04.348Z,39.10
2019-02-27T12:31:23.703Z,39.30
2019-02-27T12:37:28.111Z,38.90
2019-02-27T12:40:30.502Z,38.90
2019-02-27T12:43:00.798Z,39.40
2019-02-27T12:45:49.715Z,39.80
2019-02-27T12:48:38.653Z,39.80
2019-02-27T12:51:27.851Z,39.70
2019-02-27T12:54:16.843Z,39.70
2019-02-27T12:57:05.851Z,39.50
2019-02-27T12:59:54.787Z,38.80
2019-02-27T13:02:36.579Z,38.80
2019-02-27T13:08:01.519Z,38.50
2019-02-27T13:10:43.280Z,37.30
2019-02-27T13:13:26.034Z,38.20
2019-02-27T13:16:07.740Z,38.70
2019-02-27T13:18:49.026Z,38.50
2019-02-27T13:21:30.987Z,38.10
2019-02-27T13:24:15.307Z,36.60
2019-02-27T13:26:44.709Z,36.50
2019-02-27T13:29:33.639Z,36.50
2019-02-27T13:32:26.628Z,36.50
2019-02-27T13:35:32.584Z,36.50
2019-02-27T13:38:21.506Z,35.10
2019-02-27T13:41:11.122Z,34.80
2019-02-27T13:44:20.259Z,35.00
2019-02-27T13:47:09.531Z,34.40
2019-02-27T13:49:58.519Z,34.30
2019-02-27T13:52:29.277Z,32.80
2019-02-27T14:01:33.283Z,33.10
2019-02-27T14:06:57.932Z,33.60
2019-02-27T14:09:41.530Z,33.00
2019-02-27T14:12:11.552Z,32.70
2019-02-27T14:15:00.597Z,33.00
2019-02-27T14:17:49.885Z,32.80
2019-02-27T14:20:20.070Z,32.20
2019-02-27T14:23:11.907Z,32.10
2019-02-27T14:31:55.927Z,31.20
2019-02-27T14:34:44.856Z,32.50
2019-02-27T14:37:33.795Z,32.30
2019-02-27T14:40:22.812Z,32.60
2019-02-27T14:43:11.785Z,32.90
2019-02-27T14:46:00.711Z,32.90
2019-02-27T14:48:52.430Z,33.50
2019-02-27T14:51:59.462Z,33.50
2019-02-27T14:54:48.471Z,33.50
2019-02-27T14:57:37.647Z,33.90
2019-02-27T15:00:27.499Z,33.70
2019-02-27T15:03:09.484Z,33.00
2019-02-27T15:05:51.364Z,33.30
2019-02-27T15:11:16.295Z,33.10
2019-02-27T15:13:59.593Z,33.30
2019-02-27T15:16:41.445Z,33.50
2019-02-27T15:19:23.599Z,32.90
2019-02-27T15:22:05.078Z,33.30
2019-02-27T15:24:35.819Z,33.20
2019-02-27T15:27:45.020Z,32.40
2019-02-27T15:30:34.051Z,32.40
2019-02-27T15:33:30.782Z,33.50
2019-02-27T15:36:19.715Z,33.00
2019-02-27T15:39:08.826Z,32.90
2019-02-27T15:41:58.160Z,33.10
2019-02-27T15:44:47.384Z,33.10
2019-02-27T15:51:22.602Z,33.00
2019-02-27T15:54:11.529Z,33.20
2019-02-27T15:56:43.174Z,32.70
2019-02-27T15:59:51.472Z,32.50
2019-02-27T16:02:34.019Z,33.90
2019-02-27T16:05:17.755Z,35.60
2019-02-27T16:07:59.719Z,36.00
2019-02-27T16:10:43.807Z,37.20
2019-02-27T16:13:25.267Z,37.10
2019-02-27T16:16:07.211Z,37.50
2019-02-27T16:18:49.514Z,37.50
2019-02-27T16:21:31.130Z,38.30
2019-02-27T16:24:13.379Z,38.90
2019-02-27T16:26:57.974Z,39.30
2019-02-27T16:29:39.549Z,39.80
2019-02-27T16:32:21.788Z,40.10
2019-02-27T16:35:04.318Z,40.60
2019-02-27T16:37:47.333Z,41.80
2019-02-27T16:40:29.404Z,42.60
2019-02-27T16:43:13.513Z,43.10
2019-02-27T16:45:54.693Z,44.00
2019-02-27T16:48:36.891Z,44.60
2019-02-27T16:51:19.012Z,44.80
2019-02-27T16:54:01.051Z,45.40
2019-02-27T16:56:46.582Z,45.80
2019-02-27T16:59:26.558Z,46.20
2019-02-27T17:02:08.931Z,46.70
2019-02-27T17:04:50.670Z,48.00
2019-02-27T17:07:32.866Z,48.80
2019-02-27T17:10:17.770Z,49.20
2019-02-27T17:12:59.146Z,49.30
2019-02-27T17:15:42.347Z,49.70
2019-02-27T17:18:27.929Z,50.80
2019-02-27T17:21:07.662Z,50.40
2019-02-27T17:23:49.877Z,50.60
2019-02-27T17:26:31.717Z,51.00
2019-02-27T17:29:13.919Z,51.30
2019-02-27T17:31:49.240Z,51.70
2019-02-27T17:34:53.779Z,52.70
2019-02-27T17:37:43.138Z,53.40
2019-02-27T17:40:36.605Z,54.00
2019-02-27T17:43:56.581Z,54.60
2019-02-27T17:46:33.797Z,55.70
2019-02-27T17:49:25.403Z,55.60
2019-02-27T17:55:46.994Z,55.60
2019-02-27T17:58:35.990Z,56.70
2019-02-27T18:01:24.943Z,57.50
2019-02-27T18:04:03.724Z,57.90
2019-02-27T18:06:45.263Z,58.60
2019-02-27T18:09:15.154Z,58.90
2019-02-27T18:11:44.934Z,59.00
2019-02-27T18:14:53.046Z,59.60
2019-02-27T18:17:42.161Z,60.30
2019-02-27T18:20:32.159Z,61.10
2019-02-27T18:23:40.929Z,61.10
2019-02-27T18:29:44.454Z,60.70
2019-02-27T18:32:33.574Z,61.10
2019-02-27T18:35:22.788Z,61.90
2019-02-27T18:38:11.766Z,61.70
2019-02-27T18:41:00.951Z,62.50
2019-02-27T18:43:49.938Z,63.50
2019-02-27T18:46:38.971Z,64.70
2019-02-27T18:49:28.229Z,64.60
2019-02-27T18:52:21.365Z,64.90
2019-02-27T18:55:30.740Z,65.70
2019-02-27T18:58:20.800Z,66.40
2019-02-27T19:01:20.623Z,66.30
2019-02-27T19:06:46.161Z,67.00
2019-02-27T19:09:16.943Z,66.70
2019-02-27T19:12:05.991Z,67.40
2019-02-27T19:14:54.959Z,67.30
2019-02-27T19:17:44.292Z,68.30
2019-02-27T19:20:33.358Z,68.20
2019-02-27T19:23:22.389Z,68.90
2019-02-27T19:26:13.155Z,69.10
2019-02-27T19:29:21.541Z,68.90
2019-02-27T19:32:10.596Z,70.90
2019-02-27T19:34:59.643Z,71.10
2019-02-27T19:37:48.687Z,70.50
2019-02-27T19:40:37.726Z,70.90
2019-02-27T19:43:26.887Z,70.70
2019-02-27T19:49:23.973Z,71.90
2019-02-27T19:52:13.241Z,71.00
2019-02-27T19:55:02.234Z,72.60
2019-02-27T19:57:44.348Z,72.50
2019-02-27T20:00:55.109Z,73.20
2019-02-27T20:03:44.433Z,74.80
2019-02-27T20:06:33.729Z,74.90
2019-02-27T20:09:23.053Z,76.10
2019-02-27T20:12:12.758Z,77.30
2019-02-27T20:15:23.412Z,77.70
2019-02-27T20:18:31.843Z,79.10
2019-02-27T20:21:21.085Z,79.00
2019-02-27T20:24:14.390Z,79.60
2019-02-27T20:27:20.433Z,81.00
2019-02-27T20:30:14.058Z,80.00
2019-02-27T20:33:22.430Z,81.80
2019-02-27T20:36:33.018Z,83.00
2019-02-27T20:39:40.451Z,82.40
2019-02-27T20:42:29.466Z,82.70
2019-02-27T20:44:59.365Z,83.30
2019-02-27T20:47:48.359Z,84.90
2019-02-27T20:50:39.026Z,85.30
2019-02-27T20:53:09.271Z,86.00
2019-02-27T20:55:58.447Z,87.30
2019-02-27T20:58:28.597Z,87.80
2019-02-27T21:00:58.454Z,89.80
2019-02-27T21:03:47.392Z,90.80
2019-02-27T21:06:36.319Z,91.30
2019-02-27T21:09:25.512Z,91.80
2019-02-27T21:11:55.583Z,92.50
2019-02-27T21:14:44.641Z,93.70
2019-02-27T21:17:33.551Z,93.80
2019-02-27T21:20:22.846Z,93.50
2019-02-27T21:23:11.880Z,93.70
2019-02-27T21:26:00.794Z,94.10
2019-02-27T21:28:58.086Z,94.60
2019-02-27T21:32:01.459Z,95.50
2019-02-27T21:35:10.324Z,95.30
2019-02-27T21:37:59.346Z,95.00
2019-02-27T21:43:57.246Z,96.40
2019-02-27T21:46:59.688Z,96.50
2019-02-27T21:49:41.674Z,96.70
2019-02-27T21:52:23.430Z,97.40
2019-02-27T21:55:05.822Z,98.10
2019-02-27T21:57:47.631Z,98.40
2019-02-27T22:00:29.488Z,98.60
2019-02-27T22:03:11.035Z,99.50
2019-02-27T22:09:10.150Z,99.90
2019-02-27T22:12:19.701Z,99.90
2019-02-27T22:15:13.628Z,99.90
2019-02-27T22:18:02.644Z,99.90
2019-02-27T22:20:51.801Z,99.90
2019-02-27T22:23:41.236Z,99.90
2019-02-27T22:26:30.145Z,99.90
2019-02-27T22:29:19.258Z,99.90
2019-02-27T22:32:08.243Z,99.90
2019-02-27T22:34:59.169Z,99.90
2019-02-27T22:38:07.087Z,99.90
2019-02-27T22:43:37.489Z,99.90
2019-02-27T22:46:19.065Z,99.90
2019-02-27T22:49:01.181Z,99.90
2019-02-27T22:51:44.869Z,99.90
2019-02-27T22:54:26.999Z,99.90
2019-02-27T23:00:25.373Z,99.90
2019-02-27T23:03:14.634Z,99.90
2019-02-27T23:09:32.626Z,99.90
2019-02-27T23:12:22.066Z,99.90
2019-02-27T23:14:52.935Z,99.90
2019-02-27T23:17:23.761Z,99.90
2019-02-27T23:19:54.018Z,99.90
2019-02-27T23:22:42.976Z,99.90
2019-02-27T23:28:40.205Z,99.90
2019-02-27T23:31:48.553Z,99.90
2019-02-27T23:34:38.455Z,99.90
2019-02-27T23:37:40.629Z,99.90
2019-02-27T23:40:22.885Z,99.90
2019-02-27T23:45:48.234Z,99.90
2019-02-27T23:48:30.042Z,99.90
2019-02-27T23:51:15.796Z,99.90
2019-02-27T23:56:41.851Z,99.90
2019-02-27T23:59:24.341Z,99.90
